createdAt,value
2023-04-18T00:01:10.094Z,9.52
2023-04-18T00:03:39.565Z,9.54
2023-04-18T00:06:07.634Z,9.49
2023-04-18T00:08:35.132Z,9.40
2023-04-18T00:11:02.690Z,9.39
2023-04-18T00:13:30.335Z,9.53
2023-04-18T00:15:57.920Z,9.43
2023-04-18T00:18:27.316Z,9.41
2023-04-18T00:20:55.344Z,9.52
2023-04-18T00:23:23.509Z,9.28
2023-04-18T00:25:51.394Z,9.20
2023-04-18T00:28:19.231Z,9.25
2023-04-18T00:31:14.533Z,9.32
2023-04-18T00:33:42.563Z,9.19
2023-04-18T00:36:11.021Z,9.18
2023-04-18T00:38:38.625Z,9.29
2023-04-18T00:41:08.461Z,9.20
2023-04-18T00:43:36.588Z,9.19
2023-04-18T00:46:04.124Z,9.09
2023-04-18T00:48:31.638Z,9.02
2023-04-18T00:51:00.896Z,8.96
2023-04-18T00:53:29.525Z,8.94
2023-04-18T00:55:57.160Z,9.09
2023-04-18T00:58:25.379Z,9.03
2023-04-18T01:01:40.383Z,9.14
2023-04-18T01:07:02.970Z,9.04
2023-04-18T01:09:31.130Z,8.98
2023-04-18T01:11:58.990Z,9.04
2023-04-18T01:14:27.526Z,9.02
2023-04-18T01:16:55.206Z,8.92
2023-04-18T01:19:23.737Z,8.86
2023-04-18T01:21:54.305Z,8.66
2023-04-18T01:24:25.077Z,8.50
2023-04-18T01:26:52.856Z,8.59
2023-04-18T01:29:20.253Z,8.57
2023-04-18T01:31:48.304Z,8.50
2023-04-18T01:34:18.571Z,8.56
2023-04-18T01:36:46.905Z,8.43
2023-04-18T01:39:34.932Z,8.61
2023-04-18T01:42:02.502Z,8.63
2023-04-18T01:44:29.873Z,8.66
2023-04-18T01:46:57.603Z,8.73
2023-04-18T01:49:28.218Z,8.47
2023-04-18T01:55:22.339Z,8.54
2023-04-18T01:58:19.329Z,8.62
2023-04-18T02:00:47.319Z,8.57
2023-04-18T02:03:15.941Z,8.43
2023-04-18T02:05:43.516Z,8.61
2023-04-18T02:08:17.740Z,8.58
2023-04-18T02:10:47.301Z,8.50
2023-04-18T02:13:23.762Z,8.61
2023-04-18T02:15:58.317Z,8.62
2023-04-18T02:18:31.803Z,8.63
2023-04-18T02:21:24.593Z,8.61
2023-04-18T02:26:44.122Z,8.51
2023-04-18T02:33:09.940Z,8.60
2023-04-18T02:36:35.598Z,8.56
2023-04-18T02:39:12.540Z,8.49
2023-04-18T02:41:40.281Z,8.42
2023-04-18T02:46:52.209Z,8.38
2023-04-18T02:55:14.343Z,8.33
2023-04-18T02:57:50.903Z,8.41
2023-04-18T03:00:24.764Z,8.29
2023-04-18T03:02:55.602Z,8.39
2023-04-18T03:05:28.900Z,8.35
2023-04-18T03:08:08.596Z,8.26
2023-04-18T03:10:39.271Z,8.43
2023-04-18T03:13:08.462Z,8.44
2023-04-18T03:15:54.636Z,8.62
2023-04-18T03:18:29.777Z,8.58
2023-04-18T03:21:05.410Z,8.56
2023-04-18T03:23:40.413Z,8.56
2023-04-18T03:26:18.112Z,8.65
2023-04-18T03:28:52.477Z,8.65
2023-04-18T03:31:22.440Z,8.79
2023-04-18T03:34:38.796Z,8.89
2023-04-18T03:37:10.587Z,8.80
2023-04-18T03:45:18.502Z,8.79
2023-04-18T03:47:46.597Z,8.97
2023-04-18T03:50:15.469Z,8.91
2023-04-18T03:53:15.229Z,8.99
2023-04-18T03:55:44.398Z,8.89
2023-04-18T03:58:14.676Z,8.96
2023-04-18T04:00:41.974Z,8.94
2023-04-18T04:03:10.126Z,9.10
2023-04-18T04:05:37.996Z,9.16
2023-04-18T04:08:06.158Z,9.28
2023-04-18T04:10:34.082Z,9.16
2023-04-18T04:13:02.263Z,9.34
2023-04-18T04:15:29.979Z,9.25
2023-04-18T04:17:57.834Z,9.36
2023-04-18T04:20:30.405Z,9.36
2023-04-18T04:22:59.581Z,9.34
2023-04-18T04:25:34.311Z,9.20
2023-04-18T04:28:05.288Z,9.35
2023-04-18T04:30:34.405Z,9.37
2023-04-18T04:33:02.758Z,9.57
2023-04-18T04:35:30.200Z,9.67
2023-04-18T04:38:22.055Z,9.79
2023-04-18T06:25:08.462Z,11.77
2023-04-18T06:27:41.536Z,11.91
2023-04-18T06:30:24.419Z,11.62
2023-04-18T06:32:52.706Z,11.85
2023-04-18T06:38:14.343Z,12.10
2023-04-18T11:19:39.756Z,11.75
2023-04-18T13:58:03.847Z,14.82
2023-04-18T14:39:12.999Z,15.41
2023-04-18T15:08:21.950Z,14.77
2023-04-18T15:13:52.916Z,13.48
2023-04-18T15:22:39.015Z,12.89
2023-04-18T15:38:01.034Z,13.54
2023-04-18T16:36:37.728Z,10.72
2023-04-18T16:39:50.860Z,10.63
2023-04-18T16:49:24.296Z,10.25
2023-04-18T16:52:43.165Z,10.19
2023-04-18T16:56:14.662Z,10.18
2023-04-18T17:01:57.800Z,9.95
2023-04-18T17:04:29.992Z,9.83
2023-04-18T17:37:01.764Z,9.68
2023-04-18T17:50:03.674Z,9.73
2023-04-18T17:52:31.516Z,9.60
2023-04-18T17:58:36.476Z,9.64
2023-04-18T18:01:07.482Z,9.72
2023-04-18T18:03:35.219Z,9.60
2023-04-18T18:06:02.994Z,9.51
2023-04-18T18:08:32.052Z,9.68
2023-04-18T18:11:01.943Z,9.59
2023-04-18T18:13:29.831Z,9.56
2023-04-18T18:15:58.535Z,9.62
2023-04-18T18:18:29.341Z,9.56
2023-04-18T18:21:04.508Z,9.42
2023-04-18T18:23:32.270Z,9.55
2023-04-18T18:25:59.792Z,9.50
2023-04-18T18:28:28.091Z,9.38
2023-04-18T18:30:59.041Z,9.49
2023-04-18T18:33:26.402Z,9.30
2023-04-18T18:51:38.280Z,9.37
2023-04-18T18:54:06.952Z,9.19
2023-04-18T18:59:34.916Z,9.19
2023-04-18T19:02:03.486Z,9.27
2023-04-18T19:14:33.912Z,8.97
2023-04-18T20:13:23.722Z,8.74
2023-04-18T20:19:19.918Z,8.67
2023-04-18T20:22:07.253Z,8.67
2023-04-18T20:24:45.496Z,8.51
2023-04-18T20:27:20.176Z,8.46
2023-04-18T20:29:48.258Z,8.41
2023-04-18T20:32:17.542Z,8.50
2023-04-18T20:34:48.755Z,8.62
2023-04-18T20:40:07.245Z,8.39
2023-04-18T20:45:13.031Z,8.48
2023-04-18T20:47:45.984Z,8.55
2023-04-18T20:50:24.199Z,8.48
2023-04-18T20:52:52.141Z,8.54
2023-04-18T20:55:25.579Z,8.55
2023-04-18T21:00:45.714Z,8.45
2023-04-18T21:03:24.172Z,8.55
2023-04-18T21:11:32.652Z,8.54
2023-04-18T21:14:10.758Z,8.48
2023-04-18T21:21:57.609Z,8.49
2023-04-18T21:24:30.073Z,8.44
2023-04-18T21:26:59.094Z,8.63
2023-04-18T21:29:27.710Z,8.45
2023-04-18T21:31:56.492Z,8.62
2023-04-18T21:34:27.678Z,8.53
2023-04-18T21:36:55.241Z,8.50
2023-04-18T21:40:14.081Z,8.63
2023-04-18T21:42:51.833Z,8.54
2023-04-18T21:45:35.487Z,8.39
2023-04-18T21:50:53.922Z,8.46
2023-04-18T21:53:24.325Z,8.53
2023-04-18T21:56:06.524Z,8.43
2023-04-18T22:02:01.849Z,8.37
2023-04-18T22:15:18.672Z,8.41
2023-04-18T22:18:17.121Z,8.42
2023-04-18T22:24:32.379Z,8.14
2023-04-18T22:27:07.111Z,8.34
2023-04-18T22:29:36.576Z,8.09
2023-04-18T22:32:11.123Z,8.09
2023-04-18T22:34:39.814Z,8.11
2023-04-18T22:37:07.399Z,8.14
2023-04-18T22:39:38.152Z,8.10
2023-04-18T22:42:08.421Z,8.02
2023-04-18T22:44:35.909Z,8.01
2023-04-18T22:47:03.902Z,8.12
2023-04-18T22:52:29.295Z,7.99
2023-04-18T22:54:56.889Z,7.93
2023-04-18T22:57:26.948Z,7.93
2023-04-18T22:59:57.767Z,7.74
2023-04-18T23:02:56.999Z,7.87
2023-04-18T23:05:25.076Z,7.82
2023-04-18T23:07:52.645Z,7.70
2023-04-18T23:10:23.019Z,7.80
2023-04-18T23:12:51.021Z,7.56
2023-04-18T23:15:21.144Z,7.46
2023-04-18T23:17:49.298Z,7.50
2023-04-18T23:20:17.661Z,7.43
2023-04-18T23:26:25.836Z,7.45
2023-04-18T23:28:54.204Z,7.52
2023-04-18T23:31:22.657Z,7.45
2023-04-18T23:33:50.284Z,7.48
2023-04-18T23:36:19.808Z,7.51
2023-04-18T23:38:47.519Z,7.54
2023-04-18T23:41:15.389Z,7.56
2023-04-18T23:43:43.449Z,7.75
2023-04-18T23:46:12.838Z,7.59
2023-04-18T23:48:42.787Z,7.65
2023-04-18T23:51:10.885Z,7.56
2023-04-18T23:53:39.013Z,7.25
2023-04-18T23:56:06.584Z,7.18
2023-04-18T23:58:36.256Z,7.20
